Historique des mesures à Cassis (13260), France
Quotidien Résumé Fevrier 25, 2018 Unités:  Métrique/US    US   Métrique
« Précédent (Jour)
Suivant (Jour) »
Quotidien Hebdomadaire Mensuel Annuel Période au choix
  Maximum: Minimum: Moyenne:
Température: 32 °F /  TemperatureC °C 41.9 °F /  5.5 °C 47.7 °F /  8.7 °C
Point de rosée: 32 °F /  DewpointC °C 28.9 °F /  -1.7 °C 38.3 °F /  3.5 °C
Humidité: Humidity % 53 % 67 %
Vitesse du vent: WindSpeedKMH mph /  0 km/h - 3.6 mph /  5.8 km/h
Rafales: WindSpeedGustKMH mph /  0 km/h - -
Vent:- - SW
Pression: 0 in /  PressurehPa hPa 29.6 in /  1001.9 hPa -
Précipitations: 12.7 in /  0.5 mm    
Historical Graphs
 
 
Mesures pour : Fevrier 25, 2018
Heure Temperature Point de rosée Pression Vent Vitesse du vent Rafales Humidité Pluie (par heure) Conditions
32 °F /  TemperatureC °C 32 °F /  DewpointC °C 0 in /  PressurehPa hPa Calm     Humidity % 0 in /  HourlyPrecipMM mm SoftwareType W/m2
00:12 46.6 °F /  8.1 °C 38.8 °F /  3.8 °C 29.6 in /  1003.3 hPa NNE 6.4 mph /  10.3 km/h 6.4 mph /  10.3 km/h 74 % 0 in /  0.0 mm open2300-1.11 W/m2
01:12 46.9 °F /  8.3 °C 38.7 °F /  3.7 °C 29.6 in /  1003.6 hPa North 1.1 mph /  1.8 km/h 5.0 mph /  8 km/h 73 % 0 in /  0.0 mm open2300-1.11 W/m2
02:12 47.1 °F /  8.4 °C 38.5 °F /  3.6 °C 29.6 in /  1003.3 hPa NNW 3.2 mph /  5.1 km/h 4.3 mph /  6.9 km/h 72 % 0 in /  0.0 mm open2300-1.11 W/m2
03:12 48 °F /  8.9 °C 39 °F /  3.9 °C 29.6 in /  1003.3 hPa NNW 5.0 mph /  8 km/h 5.0 mph /  8 km/h 71 % 0 in /  0.0 mm open2300-1.11 W/m2
04:12 48.6 °F /  9.2 °C 39.6 °F /  4.2 °C 29.6 in /  1003.6 hPa Calm     71 % 0 in /  0.0 mm open2300-1.11 W/m2
05:12 49.8 °F /  9.9 °C 41.2 °F /  5.1 °C 29.6 in /  1003.6 hPa Calm     72 % 0 in /  0.0 mm open2300-1.11 W/m2
06:12 48.4 °F /  9.1 °C 41.7 °F /  5.4 °C 29.6 in /  1003.9 hPa Calm     78 % 0 in /  0.0 mm open2300-1.11 W/m2
07:12 48.7 °F /  9.3 °C 41.7 °F /  5.4 °C 29.6 in /  1003.6 hPa NNW 2.6 mph /  4.2 km/h 4.0 mph /  6.4 km/h 77 % 0 in /  0.0 mm open2300-1.11 W/m2
08:12 49.6 °F /  9.8 °C 42.3 °F /  5.7 °C 29.6 in /  1003.6 hPa Calm     76 % 0 in /  0.0 mm open2300-1.11 W/m2
09:12 49.8 °F /  9.9 °C 43.2 °F /  6.2 °C 29.6 in /  1003.9 hPa Calm     78 % 0 in /  0.0 mm open2300-1.11 W/m2
10:12 49.3 °F /  9.6 °C 43.7 °F /  6.5 °C 29.7 in /  1004.3 hPa ESE 2.9 mph /  4.7 km/h 2.9 mph /  4.7 km/h 81 % 12.7 in /  0.5 mm open2300-1.11 W/m2
11:12 51.1 °F /  10.6 °C 45.5 °F /  7.5 °C 29.6 in /  1003.9 hPa Calm   2.1 mph /  3.4 km/h 81 % 0 in /  0.0 mm open2300-1.11 W/m2
12:12 52.3 °F /  11.3 °C 45.3 °F /  7.4 °C 29.6 in /  1003.9 hPa NW 2.6 mph /  4.2 km/h 3.2 mph /  5.1 km/h 77 % 0 in /  0.0 mm open2300-1.11 W/m2
13:12 52 °F /  11.1 °C 43 °F /  6.1 °C 29.6 in /  1002.9 hPa WNW 15.4 mph /  24.8 km/h 15.4 mph /  24.8 km/h 71 % 0 in /  0.0 mm open2300-1.11 W/m2
14:12 52 °F /  11.1 °C 40.5 °F /  4.7 °C 29.6 in /  1002.3 hPa WNW 15.1 mph /  24.3 km/h 28.2 mph /  45.4 km/h 65 % 0 in /  0.0 mm open2300-1.11 W/m2
15:12 52.2 °F /  11.2 °C 37.8 °F /  3.2 °C 29.6 in /  1002.3 hPa West 10.8 mph /  17.4 km/h 22.7 mph /  36.5 km/h 58 % 0 in /  0.0 mm open2300-1.11 W/m2
16:12 51.6 °F /  10.9 °C 35.1 °F /  1.7 °C 29.6 in /  1001.9 hPa West 6.1 mph /  9.8 km/h 6.1 mph /  9.8 km/h 53 % 0 in /  0.0 mm open2300-1.11 W/m2
17:12 49.6 °F /  9.8 °C 34.2 °F /  1.2 °C 29.6 in /  1001.9 hPa NW 4.0 mph /  6.4 km/h 15.1 mph /  24.3 km/h 55 % 0 in /  0.0 mm open2300-1.11 W/m2
18:12 45.3 °F /  7.4 °C 30.9 °F /  -0.6 °C 29.6 in /  1001.9 hPa West 5.0 mph /  8 km/h 5.0 mph /  8 km/h 57 % 0 in /  0.0 mm open2300-1.11 W/m2
19:12 43.7 °F /  6.5 °C 30.4 °F /  -0.9 °C 29.6 in /  1001.9 hPa Calm     59 % 0 in /  0.0 mm open2300-1.11 W/m2
20:12 41.9 °F /  5.5 °C 28.9 °F /  -1.7 °C 29.6 in /  1001.9 hPa NNE 5.8 mph /  9.3 km/h 10.1 mph /  16.3 km/h 60 % 0 in /  0.0 mm open2300-1.11 W/m2
21:12 43.9 °F /  6.6 °C 31.6 °F /  -0.2 °C 29.6 in /  1002.6 hPa WNW 4.7 mph /  7.6 km/h 4.7 mph /  7.6 km/h 62 % 0 in /  0.0 mm open2300-1.11 W/m2
22:12 45.1 °F /  7.3 °C 36.3 °F /  2.4 °C 29.6 in /  1003.6 hPa Calm   6.1 mph /  9.8 km/h 71 % 0 in /  0.0 mm open2300-1.11 W/m2
23:12 45.1 °F /  7.3 °C 37.8 °F /  3.2 °C 29.6 in /  1003.9 hPa Calm     75 % 0 in /  0.0 mm open2300-1.11 W/m2
Observations météo à CASSIS
WU-History script by Weather Underground - 1 mb